GHOST41 KSGU-KLSV
Flight info
| Callsign | GHOST41 |
|---|---|
| Flight time | 0h 28m |
| Altitude | 14500 |
| Route | KSGU IYLAG PHYLI KLSV |
| Aircraft | F35/L-ICAO/C |
Departure
| Time | 2026-04-25 19:16 |
|---|---|
| Airport | St George Regional Airport (KSGU) |
Arrival
| Time | 2026-04-25 19:45 |
|---|---|
| Airport | Nellis Air Force Base (KLSV) |
| Time | Latitude | Longitude | Altitude | Speed | Heading |
|---|---|---|---|---|---|
| 2026-04-25 19:12 | 37.02494 | -113.51639 | 2840 ft | 0 kts | 23° |
| 2026-04-25 19:16 | 37.02765 | -113.51498 | 2849 ft | 154 kts | 23° |
| 2026-04-25 19:16 | 37.04488 | -113.50563 | 3404 ft | 382 kts | 23° |
| 2026-04-25 19:16 | 37.07491 | -113.48903 | 3917 ft | 566 kts | 23° |
| 2026-04-25 19:16 | 37.11118 | -113.49400 | 5724 ft | 600 kts | 299° |
| 2026-04-25 19:17 | 37.10750 | -113.54365 | 7010 ft | 599 kts | 232° |
| 2026-04-25 19:17 | 37.07069 | -113.56290 | 8844 ft | 602 kts | 182° |
| 2026-04-25 19:17 | 37.02849 | -113.56421 | 9542 ft | 605 kts | 182° |
| 2026-04-25 19:17 | 36.99267 | -113.58738 | 10182 ft | 601 kts | 232° |
| 2026-04-25 19:18 | 36.97148 | -113.63280 | 10339 ft | 610 kts | 242° |
| 2026-04-25 19:18 | 36.95237 | -113.68018 | 10326 ft | 610 kts | 240° |
| 2026-04-25 19:18 | 36.93168 | -113.72567 | 11411 ft | 586 kts | 238° |
| 2026-04-25 19:18 | 36.91024 | -113.76864 | 13677 ft | 581 kts | 238° |
| 2026-04-25 19:19 | 36.89591 | -113.81467 | 14336 ft | 585 kts | 276° |
| 2026-04-25 19:19 | 36.90514 | -113.86495 | 14149 ft | 605 kts | 291° |
| 2026-04-25 19:19 | 36.92621 | -113.91096 | 13724 ft | 609 kts | 296° |
| 2026-04-25 19:19 | 36.93083 | -113.92751 | 13739 ft | 597 kts | 272° |
| 2026-04-25 19:20 | 36.89177 | -113.99406 | 13861 ft | 595 kts | 226° |
| 2026-04-25 19:20 | 36.86366 | -114.03198 | 14162 ft | 593 kts | 230° |
| 2026-04-25 19:20 | 36.83868 | -114.07307 | 14325 ft | 593 kts | 233° |
| 2026-04-25 19:20 | 36.81436 | -114.11451 | 14459 ft | 591 kts | 234° |
| 2026-04-25 19:21 | 36.79017 | -114.15606 | 14539 ft | 590 kts | 234° |
| 2026-04-25 19:21 | 36.74263 | -114.23933 | 14747 ft | 589 kts | 235° |
| 2026-04-25 19:21 | 36.71927 | -114.28172 | 14057 ft | 597 kts | 236° |
| 2026-04-25 19:22 | 36.69449 | -114.32342 | 12988 ft | 603 kts | 232° |
| 2026-04-25 19:22 | 36.66858 | -114.36483 | 11984 ft | 606 kts | 232° |
| 2026-04-25 19:22 | 36.61791 | -114.44805 | 10855 ft | 607 kts | 233° |
| 2026-04-25 19:23 | 36.59161 | -114.48934 | 10544 ft | 607 kts | 230° |
| 2026-04-25 19:23 | 36.53817 | -114.57131 | 9828 ft | 612 kts | 231° |
| 2026-04-25 19:23 | 36.51155 | -114.61263 | 9401 ft | 613 kts | 231° |
| 2026-04-25 19:24 | 36.48489 | -114.65401 | 8910 ft | 614 kts | 231° |
| 2026-04-25 19:24 | 36.45822 | -114.69560 | 8319 ft | 614 kts | 231° |
| 2026-04-25 19:24 | 36.41045 | -114.78148 | 7258 ft | 605 kts | 248° |
| 2026-04-25 19:25 | 36.37988 | -114.87765 | 6367 ft | 596 kts | 228° |
| 2026-04-25 19:25 | 36.34984 | -114.91266 | 5860 ft | 581 kts | 221° |
| 2026-04-25 19:25 | 36.31984 | -114.94568 | 5231 ft | 574 kts | 221° |
| 2026-04-25 19:26 | 36.29123 | -114.97737 | 4646 ft | 521 kts | 221° |
| 2026-04-25 19:26 | 36.26510 | -115.00580 | 4075 ft | 482 kts | 220° |
| 2026-04-25 19:26 | 36.24097 | -115.03226 | 3957 ft | 449 kts | 220° |
| 2026-04-25 19:26 | 36.22671 | -115.06228 | 4105 ft | 400 kts | 288° |
| 2026-04-25 19:27 | 36.24696 | -115.06950 | 4345 ft | 328 kts | 44° |
| 2026-04-25 19:27 | 36.25204 | -115.06289 | 4352 ft | 325 kts | 46° |
| 2026-04-25 19:27 | 36.27662 | -115.02926 | 4219 ft | 303 kts | 47° |
| 2026-04-25 19:27 | 36.28206 | -115.00791 | 3720 ft | 231 kts | 130° |
| 2026-04-25 19:28 | 36.26906 | -115.00343 | 3187 ft | 221 kts | 196° |
| 2026-04-25 19:28 | 36.25686 | -115.01405 | 2584 ft | 207 kts | 223° |
| 2026-04-25 19:28 | 36.24684 | -115.02504 | 1959 ft | 179 kts | 220° |
| 2026-04-25 19:28 | 36.23862 | -115.03388 | 1898 ft | 181 kts | 221° |
| 2026-04-25 19:29 | 36.22464 | -115.04868 | 2635 ft | 344 kts | 221° |
| 2026-04-25 19:29 | 36.20903 | -115.07718 | 3771 ft | 483 kts | 290° |
| 2026-04-25 19:29 | 36.24190 | -115.08247 | 4262 ft | 593 kts | 17° |
| 2026-04-25 19:29 | 36.28047 | -115.05943 | 4559 ft | 611 kts | 29° |
| 2026-04-25 19:30 | 36.29851 | -115.03732 | 4743 ft | 512 kts | 76° |
| 2026-04-25 19:30 | 36.28642 | -115.00532 | 4168 ft | 393 kts | 152° |
| 2026-04-25 19:30 | 36.25688 | -115.01437 | 2790 ft | 332 kts | 219° |
| 2026-04-25 19:30 | 36.23680 | -115.03606 | 2485 ft | 488 kts | 222° |
| 2026-04-25 19:31 | 36.21323 | -115.06166 | 7818 ft | 373 kts | 220° |
| 2026-04-25 19:31 | 36.20271 | -115.08165 | 12947 ft | 512 kts | 260° |
| 2026-04-25 19:31 | 36.19891 | -115.12968 | 13973 ft | 579 kts | 277° |
| 2026-04-25 19:31 | 36.22377 | -115.16525 | 12991 ft | 599 kts | 349° |
| 2026-04-25 19:32 | 36.25970 | -115.14276 | 11680 ft | 614 kts | 50° |
| 2026-04-25 19:32 | 36.28540 | -115.10502 | 11275 ft | 534 kts | 50° |
| 2026-04-25 19:32 | 36.30762 | -115.07155 | 9633 ft | 487 kts | 51° |
| 2026-04-25 19:32 | 36.32043 | -115.04873 | 7930 ft | 463 kts | 75° |
| 2026-04-25 19:33 | 36.30415 | -115.00767 | 5544 ft | 411 kts | 140° |
| 2026-04-25 19:33 | 36.28018 | -114.99485 | 3890 ft | 371 kts | 195° |
| 2026-04-25 19:33 | 36.25947 | -115.01162 | 2666 ft | 354 kts | 220° |
| 2026-04-25 19:33 | 36.24122 | -115.03108 | 2085 ft | 332 kts | 220° |
| 2026-04-25 19:34 | 36.22287 | -115.05096 | 2390 ft | 380 kts | 221° |
| 2026-04-25 19:34 | 36.22128 | -115.08061 | 2491 ft | 436 kts | 323° |
| 2026-04-25 19:34 | 36.24766 | -115.07388 | 2940 ft | 397 kts | 36° |
| 2026-04-25 19:34 | 36.26936 | -115.05389 | 4129 ft | 386 kts | 37° |
| 2026-04-25 19:35 | 36.29007 | -115.03448 | 4303 ft | 370 kts | 37° |
| 2026-04-25 19:35 | 36.30336 | -115.01042 | 4081 ft | 320 kts | 96° |
| 2026-04-25 19:35 | 36.29182 | -114.99694 | 3679 ft | 217 kts | 177° |
| 2026-04-25 19:35 | 36.27784 | -114.99716 | 3296 ft | 186 kts | 197° |
| 2026-04-25 19:36 | 36.26635 | -115.00451 | 2910 ft | 193 kts | 216° |
| 2026-04-25 19:36 | 36.25549 | -115.01584 | 2419 ft | 208 kts | 220° |
| 2026-04-25 19:36 | 36.24512 | -115.02694 | 1916 ft | 179 kts | 221° |
| 2026-04-25 19:36 | 36.23627 | -115.03655 | 1914 ft | 239 kts | 221° |
| 2026-04-25 19:37 | 36.21987 | -115.05477 | 3697 ft | 261 kts | 222° |
| 2026-04-25 19:37 | 36.20749 | -115.07062 | 9658 ft | 264 kts | 243° |
| 2026-04-25 19:37 | 36.20807 | -115.09532 | 8848 ft | 351 kts | 281° |
| 2026-04-25 19:37 | 36.22609 | -115.11974 | 8420 ft | 424 kts | 338° |
| 2026-04-25 19:38 | 36.25419 | -115.11545 | 7608 ft | 427 kts | 37° |
| 2026-04-25 19:38 | 36.27691 | -115.09156 | 6908 ft | 437 kts | 41° |
| 2026-04-25 19:38 | 36.29915 | -115.06638 | 5624 ft | 429 kts | 43° |
| 2026-04-25 19:38 | 36.31443 | -115.03797 | 4865 ft | 375 kts | 97° |
| 2026-04-25 19:39 | 36.30125 | -115.01488 | 4320 ft | 322 kts | 141° |
| 2026-04-25 19:39 | 36.28337 | -115.00096 | 3729 ft | 281 kts | 183° |
| 2026-04-25 19:39 | 36.26609 | -115.00482 | 3031 ft | 230 kts | 211° |
| 2026-04-25 19:39 | 36.25514 | -115.01612 | 2469 ft | 187 kts | 221° |
| 2026-04-25 19:40 | 36.24607 | -115.02593 | 1928 ft | 154 kts | 221° |
| 2026-04-25 19:40 | 36.23926 | -115.03329 | 1903 ft | 171 kts | 220° |
| 2026-04-25 19:40 | 36.22487 | -115.04889 | 2465 ft | 262 kts | 214° |
| 2026-04-25 19:40 | 36.20872 | -115.06510 | 6757 ft | 369 kts | 219° |
| 2026-04-25 19:41 | 36.20211 | -115.09708 | 5930 ft | 467 kts | 286° |
| 2026-04-25 19:41 | 36.21897 | -115.13434 | 6384 ft | 531 kts | 334° |
| 2026-04-25 19:41 | 36.25219 | -115.11960 | 6363 ft | 566 kts | 46° |
| 2026-04-25 19:41 | 36.26977 | -115.09692 | 6196 ft | 535 kts | 46° |
| 2026-04-25 19:42 | 36.30143 | -115.05436 | 5054 ft | 466 kts | 48° |
| 2026-04-25 19:42 | 36.31167 | -115.02221 | 4100 ft | 383 kts | 121° |
| 2026-04-25 19:42 | 36.29544 | -114.99989 | 3728 ft | 341 kts | 136° |
| 2026-04-25 19:42 | 36.27915 | -114.97967 | 3398 ft | 318 kts | 138° |
| 2026-04-25 19:43 | 36.27693 | -114.96255 | 2527 ft | 193 kts | 359° |
| 2026-04-25 19:43 | 36.29082 | -114.96399 | 2999 ft | 251 kts | 319° |
| 2026-04-25 19:43 | 36.29373 | -114.98644 | 3489 ft | 297 kts | 221° |
| 2026-04-25 19:43 | 36.27665 | -114.99448 | 3071 ft | 240 kts | 210° |
| 2026-04-25 19:44 | 36.26473 | -115.00563 | 2655 ft | 192 kts | 220° |
| 2026-04-25 19:44 | 36.25491 | -115.01637 | 2300 ft | 195 kts | 219° |
| 2026-04-25 19:44 | 36.24445 | -115.02757 | 1920 ft | 188 kts | 221° |
| 2026-04-25 19:44 | 36.23676 | -115.03595 | 1907 ft | 94 kts | 221° |
| 2026-04-25 19:45 | 36.23336 | -115.03974 | 1908 ft | 51 kts | 217° |
| 2026-04-25 19:45 | 36.23098 | -115.04229 | 1906 ft | 42 kts | 220° |
| 2026-04-25 19:45 | 36.22871 | -115.04474 | 1908 ft | 42 kts | 221° |
| 2026-04-25 19:45 | 36.22714 | -115.04653 | 1909 ft | 19 kts | 243° |
| 2026-04-25 19:46 | 36.22758 | -115.04782 | 1912 ft | 15 kts | 322° |
| 2026-04-25 19:46 | 36.22848 | -115.04770 | 1913 ft | 13 kts | 17° |
| 2026-04-25 19:46 | 36.22901 | -115.04771 | 1913 ft | 5 kts | 38° |
| 2026-04-25 19:46 | 36.22915 | -115.04755 | 1913 ft | 0 kts | 42° |